createdAt,value
2019-05-02T00:01:04.346Z,4.93
2019-05-02T00:03:06.940Z,5.40
2019-05-02T00:05:10.418Z,5.23
2019-05-02T00:07:14.456Z,5.20
2019-05-02T00:09:15.766Z,5.20
2019-05-02T00:11:18.892Z,6.40
2019-05-02T00:13:21.513Z,5.47
2019-05-02T00:15:24.152Z,4.90
2019-05-02T00:17:27.557Z,4.65
2019-05-02T00:19:29.412Z,5.60
2019-05-02T00:21:32.988Z,5.47
2019-05-02T00:23:34.647Z,4.60
2019-05-02T00:25:37.240Z,5.00
2019-05-02T00:27:39.849Z,6.17
2019-05-02T00:29:42.650Z,6.30
2019-05-02T00:31:47.046Z,5.43
2019-05-02T00:33:49.414Z,5.60
2019-05-02T00:35:52.208Z,5.70
2019-05-02T00:37:57.485Z,5.68
2019-05-02T00:39:57.505Z,6.40
2019-05-02T00:42:12.106Z,6.60
2019-05-02T00:44:06.008Z,6.67
2019-05-02T00:46:05.396Z,6.77
2019-05-02T00:48:10.008Z,6.40
2019-05-02T00:50:13.482Z,7.20
2019-05-02T00:52:16.084Z,7.63
2019-05-02T00:54:24.202Z,6.43
2019-05-02T00:56:22.552Z,8.27
2019-05-02T00:58:27.219Z,7.20
2019-05-02T01:00:28.688Z,7.70
2019-05-02T01:02:46.996Z,6.90
2019-05-02T01:04:49.622Z,7.23
2019-05-02T01:06:52.257Z,7.67
2019-05-02T01:08:54.856Z,6.30
2019-05-02T01:10:58.115Z,7.60
2019-05-02T01:13:01.073Z,6.60
2019-05-02T01:15:08.397Z,8.00
2019-05-02T01:17:07.918Z,7.70
2019-05-02T01:19:12.091Z,8.88
2019-05-02T01:21:13.344Z,7.33
2019-05-02T01:23:16.059Z,8.40
2019-05-02T01:25:19.435Z,7.10
2019-05-02T01:27:41.083Z,8.43
2019-05-02T01:30:01.333Z,7.33
2019-05-02T01:32:15.623Z,8.90
2019-05-02T01:34:34.640Z,9.50
2019-05-02T01:36:41.019Z,9.60
2019-05-02T01:38:41.664Z,8.97
2019-05-02T01:40:48.163Z,9.77
2019-05-02T01:42:49.008Z,9.70
2019-05-02T01:44:50.297Z,9.77
2019-05-02T01:46:53.977Z,9.47
2019-05-02T01:48:56.178Z,10.63
2019-05-02T01:51:04.454Z,8.33
2019-05-02T01:53:02.582Z,10.20
2019-05-02T01:55:05.144Z,8.53
2019-05-02T01:57:09.888Z,10.40
2019-05-02T01:59:11.147Z,8.33
2019-05-02T02:01:16.090Z,10.83
2019-05-02T02:03:17.320Z,11.47
2019-05-02T02:05:19.892Z,9.70
2019-05-02T02:07:22.459Z,9.57
2019-05-02T02:09:25.149Z,11.47
2019-05-02T02:11:28.407Z,9.50
2019-05-02T02:13:35.933Z,11.37
2019-05-02T02:15:33.687Z,11.37
2019-05-02T02:17:36.259Z,11.03
2019-05-02T02:19:44.320Z,11.70
2019-05-02T02:21:46.988Z,12.37
2019-05-02T02:23:51.017Z,12.37
2019-05-02T02:26:11.393Z,11.10
2019-05-02T02:28:09.276Z,10.70
2019-05-02T02:30:17.775Z,11.20
2019-05-02T02:32:20.102Z,10.70
2019-05-02T02:34:21.321Z,10.00
2019-05-02T02:36:29.559Z,12.10
2019-05-02T02:38:26.897Z,12.37
2019-05-02T02:40:32.904Z,11.60
2019-05-02T02:42:31.865Z,11.00
2019-05-02T02:44:40.062Z,11.47
2019-05-02T02:46:48.796Z,11.87
2019-05-02T02:48:51.420Z,11.27
2019-05-02T02:50:54.224Z,11.00
2019-05-02T02:52:58.291Z,9.90
2019-05-02T02:55:00.891Z,10.10
2019-05-02T02:57:05.471Z,12.90
2019-05-02T02:59:08.052Z,11.97
2019-05-02T03:01:10.620Z,11.93
2019-05-02T03:03:13.214Z,12.93
2019-05-02T03:05:18.924Z,12.93
2019-05-02T03:07:25.803Z,14.30
2019-05-02T03:09:26.809Z,12.27
2019-05-02T03:11:25.515Z,14.27
2019-05-02T03:13:28.812Z,11.70
2019-05-02T03:15:31.377Z,12.73
2019-05-02T03:17:34.746Z,12.70
2019-05-02T03:19:37.389Z,13.50
2019-05-02T03:21:39.951Z,12.47
2019-05-02T03:23:42.523Z,12.87
2019-05-02T03:25:50.928Z,11.97
2019-05-02T03:27:47.884Z,12.40
2019-05-02T03:29:50.697Z,13.17
2019-05-02T03:32:11.382Z,13.47
2019-05-02T03:34:00.703Z,13.33
2019-05-02T03:35:58.416Z,13.10
2019-05-02T03:38:01.076Z,11.00
2019-05-02T03:40:03.618Z,13.17
2019-05-02T03:42:06.212Z,11.87
2019-05-02T03:44:11.875Z,13.38
2019-05-02T03:46:13.483Z,11.93
2019-05-02T03:48:18.260Z,13.63
2019-05-02T03:50:16.803Z,12.57
2019-05-02T03:52:19.380Z,13.57
2019-05-02T03:54:21.972Z,13.27
2019-05-02T03:56:24.563Z,13.07
2019-05-02T03:58:27.204Z,13.00
2019-05-02T04:00:29.914Z,14.83
2019-05-02T04:02:32.566Z,12.67
2019-05-02T04:04:35.126Z,14.10
2019-05-02T04:06:37.759Z,12.97
2019-05-02T04:08:41.120Z,14.20
2019-05-02T04:11:03.441Z,14.00
2019-05-02T04:13:06.040Z,13.00
2019-05-02T04:15:09.758Z,13.57
2019-05-02T04:17:11.173Z,12.53
2019-05-02T04:19:14.019Z,12.53
2019-05-02T04:21:24.116Z,14.40
2019-05-02T04:23:21.220Z,13.20
2019-05-02T04:25:28.017Z,12.63
2019-05-02T04:27:27.644Z,13.93
2019-05-02T04:29:31.380Z,14.27
2019-05-02T04:31:33.733Z,15.00
2019-05-02T04:33:36.469Z,14.17
2019-05-02T04:35:37.200Z,14.97
2019-05-02T04:37:41.266Z,13.93
2019-05-02T04:39:42.343Z,15.70
2019-05-02T04:41:44.902Z,14.17
2019-05-02T04:43:57.397Z,13.87
2019-05-02T04:45:56.007Z,13.67
2019-05-02T04:47:58.472Z,13.93
2019-05-02T04:49:55.388Z,15.40
2019-05-02T04:52:06.164Z,16.70
2019-05-02T04:54:00.662Z,13.60
2019-05-02T04:56:07.091Z,15.53
2019-05-02T04:58:08.309Z,16.73
2019-05-02T05:00:11.745Z,15.87
2019-05-02T05:02:11.155Z,16.43
2019-05-02T05:04:13.724Z,15.67
2019-05-02T05:06:18.650Z,16.60
2019-05-02T05:08:26.193Z,16.50
2019-05-02T05:10:21.526Z,15.47
2019-05-02T05:12:24.099Z,15.53
2019-05-02T05:14:33.242Z,17.37
2019-05-02T05:16:30.879Z,17.70
2019-05-02T05:18:33.482Z,16.60
2019-05-02T05:20:38.453Z,16.90
2019-05-02T05:22:44.130Z,14.27
2019-05-02T05:24:58.216Z,15.60
2019-05-02T05:27:00.309Z,15.03
2019-05-02T05:29:02.967Z,15.27
2019-05-02T05:31:07.521Z,14.27
2019-05-02T05:33:10.307Z,14.17
2019-05-02T05:35:13.093Z,15.30
2019-05-02T05:37:14.667Z,12.47
2019-05-02T05:39:17.600Z,15.10
2019-05-02T05:41:22.988Z,16.10
2019-05-02T05:43:22.619Z,14.77
2019-05-02T05:45:27.901Z,14.37
2019-05-02T05:47:28.659Z,15.53
2019-05-02T05:49:31.231Z,14.03
2019-05-02T05:51:34.003Z,14.83
2019-05-02T05:53:37.496Z,15.30
2019-05-02T05:55:40.275Z,14.97
2019-05-02T05:57:42.872Z,12.83
2019-05-02T05:59:45.434Z,13.70
2019-05-02T06:01:51.428Z,12.70
2019-05-02T06:03:51.407Z,13.97
2019-05-02T06:05:53.963Z,14.57
2019-05-02T06:07:57.512Z,14.70
2019-05-02T06:10:02.197Z,14.23
2019-05-02T06:12:01.799Z,14.87
2019-05-02T06:14:04.369Z,16.00
2019-05-02T06:16:10.541Z,15.83
2019-05-02T06:18:09.613Z,15.10
2019-05-02T06:20:12.191Z,15.80
2019-05-02T06:22:16.545Z,15.47
2019-05-02T06:24:17.467Z,17.20
2019-05-02T06:26:20.201Z,20.13
2019-05-02T06:28:22.955Z,17.77
2019-05-02T06:30:27.159Z,17.43
2019-05-02T06:32:28.856Z,22.97
2019-05-02T06:34:31.440Z,25.30
2019-05-02T06:36:36.826Z,25.93
2019-05-02T06:38:36.551Z,25.90
2019-05-02T06:40:44.115Z,27.53
2019-05-02T06:42:42.229Z,25.77
2019-05-02T06:44:45.606Z,24.20
2019-05-02T06:46:48.407Z,23.60
2019-05-02T06:48:52.278Z,23.47
2019-05-02T06:50:53.560Z,27.30
2019-05-02T06:52:56.131Z,26.77
2019-05-02T06:54:59.174Z,25.60
2019-05-02T06:57:02.399Z,28.93
2019-05-02T06:59:05.002Z,29.70
2019-05-02T07:01:07.593Z,27.73
2019-05-02T07:03:11.669Z,27.30
2019-05-02T07:05:15.768Z,28.17
2019-05-02T07:07:18.437Z,28.17
2019-05-02T07:09:20.888Z,28.90
2019-05-02T07:11:23.491Z,28.27
2019-05-02T07:13:26.063Z,27.60
2019-05-02T07:15:49.584Z,28.90
2019-05-02T07:17:52.173Z,31.10
2019-05-02T07:20:03.870Z,30.27
2019-05-02T07:22:04.434Z,29.70
2019-05-02T07:24:06.198Z,30.27
2019-05-02T07:26:08.743Z,29.47
2019-05-02T07:28:11.481Z,31.48
2019-05-02T07:30:14.059Z,30.50
2019-05-02T07:32:19.345Z,31.63
2019-05-02T07:34:20.775Z,30.27
2019-05-02T07:36:23.454Z,31.00
2019-05-02T07:38:27.550Z,31.80
2019-05-02T07:40:28.594Z,28.47
2019-05-02T07:42:31.171Z,33.60
2019-05-02T07:44:34.545Z,30.93
2019-05-02T07:46:36.320Z,32.17
2019-05-02T07:48:39.099Z,31.90
2019-05-02T07:50:46.403Z,31.30
2019-05-02T07:52:44.251Z,34.30
2019-05-02T07:54:46.844Z,31.60
2019-05-02T07:56:53.499Z,31.67
2019-05-02T07:58:53.506Z,30.87
2019-05-02T08:00:56.206Z,34.20
2019-05-02T08:02:59.410Z,33.00
2019-05-02T08:05:01.305Z,31.33
2019-05-02T08:07:03.899Z,31.73
2019-05-02T08:09:07.058Z,33.10
2019-05-02T08:11:09.456Z,33.70
2019-05-02T08:13:17.440Z,32.40
2019-05-02T08:15:15.606Z,29.70
2019-05-02T08:17:19.340Z,32.92
2019-05-02T08:19:23.547Z,35.37
2019-05-02T08:21:27.410Z,30.43
2019-05-02T08:23:27.896Z,32.90
2019-05-02T08:25:30.214Z,32.50
2019-05-02T08:27:34.613Z,35.23
2019-05-02T08:29:35.516Z,35.57
2019-05-02T08:31:38.271Z,34.40
2019-05-02T08:33:40.831Z,33.23
2019-05-02T08:35:43.403Z,34.17
2019-05-02T08:37:46.571Z,35.10
2019-05-02T08:39:49.531Z,35.43
2019-05-02T08:41:56.542Z,35.07
2019-05-02T08:43:54.857Z,36.30
2019-05-02T08:45:57.927Z,37.30
2019-05-02T08:48:05.203Z,34.10
2019-05-02T08:50:03.168Z,34.47
2019-05-02T08:52:05.754Z,37.10
2019-05-02T08:54:08.339Z,34.10
2019-05-02T08:56:11.015Z,35.87
2019-05-02T08:58:14.632Z,34.37
2019-05-02T09:00:16.155Z,35.13
2019-05-02T09:02:21.120Z,34.07
2019-05-02T09:04:24.235Z,33.80
2019-05-02T09:06:25.448Z,37.90
2019-05-02T09:08:28.753Z,35.03
2019-05-02T09:10:31.306Z,38.80
2019-05-02T09:12:36.863Z,34.90
2019-05-02T09:14:38.887Z,37.00
2019-05-02T09:16:42.742Z,37.90
2019-05-02T09:18:50.567Z,35.00
2019-05-02T09:20:51.482Z,31.77
2019-05-02T09:22:52.241Z,35.33
2019-05-02T09:24:53.667Z,34.30
2019-05-02T09:26:56.220Z,37.30
2019-05-02T09:29:01.671Z,34.97
2019-05-02T09:31:02.887Z,34.07
2019-05-02T09:33:06.507Z,34.37
2019-05-02T09:35:06.623Z,33.17
2019-05-02T09:37:09.436Z,35.30
2019-05-02T09:39:12.115Z,33.60
2019-05-02T09:41:19.359Z,34.47
2019-05-02T09:43:18.875Z,33.20
2019-05-02T09:45:22.725Z,34.97
2019-05-02T09:47:27.349Z,36.10
2019-05-02T09:49:27.112Z,35.33
2019-05-02T09:51:29.661Z,34.63
2019-05-02T09:53:32.559Z,35.10
2019-05-02T09:55:35.240Z,31.60
2019-05-02T09:57:38.162Z,33.70
2019-05-02T09:59:43.429Z,32.60
2019-05-02T10:01:44.477Z,33.27
2019-05-02T10:03:47.043Z,30.90
2019-05-02T10:05:49.648Z,31.57
2019-05-02T10:07:57.458Z,30.97
2019-05-02T10:09:57.670Z,30.50
2019-05-02T10:11:59.425Z,31.27
2019-05-02T10:14:02.477Z,27.50
2019-05-02T10:16:05.200Z,29.60
2019-05-02T10:18:12.000Z,27.03
2019-05-02T10:20:12.463Z,28.63
2019-05-02T10:22:14.531Z,29.40
2019-05-02T10:24:17.132Z,29.20
2019-05-02T10:26:23.782Z,29.10
2019-05-02T10:28:22.972Z,28.80
2019-05-02T10:30:25.164Z,27.87
2019-05-02T10:32:27.843Z,31.90
2019-05-02T10:34:30.376Z,28.47
2019-05-02T10:36:32.924Z,31.40
2019-05-02T10:38:35.509Z,30.13
2019-05-02T10:40:38.108Z,29.87
2019-05-02T10:42:41.958Z,31.20
2019-05-02T10:44:43.249Z,30.37
2019-05-02T10:46:56.711Z,28.17
2019-05-02T10:49:13.740Z,30.10
2019-05-02T10:51:41.803Z,27.67
2019-05-02T10:53:42.221Z,26.87
2019-05-02T10:55:43.153Z,26.00
2019-05-02T10:57:45.790Z,23.57
2019-05-02T10:59:48.782Z,22.17
2019-05-02T11:01:53.820Z,24.53
2019-05-02T11:03:57.416Z,22.70
2019-05-02T11:06:03.666Z,22.40
2019-05-02T11:08:06.350Z,22.10
2019-05-02T11:10:08.101Z,20.50
2019-05-02T11:12:11.813Z,21.37
2019-05-02T11:14:15.832Z,19.77
2019-05-02T11:16:24.164Z,19.40
2019-05-02T11:18:40.267Z,16.67
2019-05-02T11:20:31.902Z,18.23
2019-05-02T11:22:34.079Z,18.33
2019-05-02T11:24:37.511Z,19.53
2019-05-02T11:26:40.043Z,17.43
2019-05-02T11:28:42.640Z,18.23
2019-05-02T11:30:45.201Z,17.23
2019-05-02T11:32:47.771Z,17.57
2019-05-02T11:34:52.270Z,17.20
2019-05-02T11:36:52.954Z,19.07
2019-05-02T11:39:03.840Z,19.27
2019-05-02T11:40:58.270Z,17.57
2019-05-02T11:43:04.915Z,16.43
2019-05-02T11:45:03.395Z,16.40
2019-05-02T11:47:05.987Z,18.17
2019-05-02T11:49:08.562Z,16.60
2019-05-02T11:51:12.669Z,17.30
2019-05-02T11:53:24.706Z,16.10
2019-05-02T11:55:19.037Z,15.23
2019-05-02T11:57:22.716Z,15.87
2019-05-02T11:59:27.617Z,17.80
2019-05-02T12:01:35.736Z,19.63
2019-05-02T12:03:28.217Z,20.87
2019-05-02T12:05:31.710Z,18.70
2019-05-02T12:07:33.270Z,17.53
2019-05-02T12:09:35.839Z,19.40
2019-05-02T12:11:38.609Z,18.30
2019-05-02T12:13:42.769Z,18.30
2019-05-02T12:15:44.483Z,19.57
2019-05-02T12:17:46.848Z,19.87
2019-05-02T12:19:49.411Z,16.43
2019-05-02T12:21:52.965Z,15.90
2019-05-02T12:23:55.475Z,16.37
2019-05-02T12:25:58.255Z,13.57
2019-05-02T12:28:02.305Z,12.67
2019-05-02T12:30:04.335Z,16.30
2019-05-02T12:32:06.899Z,15.63
2019-05-02T12:34:09.448Z,15.13
2019-05-02T12:36:12.498Z,14.70
2019-05-02T12:38:16.544Z,15.20
2019-05-02T12:40:19.099Z,14.03
2019-05-02T12:42:23.925Z,15.63
2019-05-02T12:44:24.991Z,14.47
2019-05-02T12:46:28.579Z,13.67
2019-05-02T12:48:32.829Z,16.77
2019-05-02T12:50:34.880Z,14.53
2019-05-02T12:52:38.282Z,12.90
2019-05-02T12:54:41.662Z,16.50
2019-05-02T12:56:43.408Z,17.43
2019-05-02T12:58:45.980Z,16.17
2019-05-02T13:00:49.903Z,15.53
2019-05-02T13:02:52.611Z,14.87
2019-05-02T13:04:55.077Z,14.80
2019-05-02T13:06:57.623Z,14.13
2019-05-02T13:09:00.182Z,15.47
2019-05-02T13:11:08.263Z,14.17
2019-05-02T13:13:12.289Z,14.80
2019-05-02T13:15:13.457Z,13.67
2019-05-02T13:17:16.021Z,12.83
2019-05-02T13:19:18.622Z,14.70
2019-05-02T13:21:23.478Z,14.57
2019-05-02T13:23:42.522Z,15.10
2019-05-02T13:25:43.919Z,13.13
2019-05-02T13:27:48.118Z,14.43
2019-05-02T13:29:49.041Z,13.67
2019-05-02T13:31:53.518Z,13.17
2019-05-02T13:34:14.714Z,12.90
2019-05-02T13:36:26.331Z,13.33
2019-05-02T13:38:30.435Z,14.73
2019-05-02T13:40:33.893Z,13.43
2019-05-02T13:42:37.168Z,16.13
2019-05-02T13:44:42.516Z,18.33
2019-05-02T13:46:45.076Z,15.27
2019-05-02T13:48:47.635Z,14.17
2019-05-02T13:50:51.826Z,15.87
2019-05-02T13:52:57.700Z,15.20
2019-05-02T13:54:55.366Z,14.80
2019-05-02T13:56:58.187Z,14.40
2019-05-02T13:59:02.591Z,14.10
2019-05-02T14:01:03.490Z,12.57
2019-05-02T14:03:06.733Z,14.83
2019-05-02T14:05:10.107Z,15.17
2019-05-02T14:07:17.365Z,13.03
2019-05-02T14:09:22.471Z,16.27
2019-05-02T14:11:31.753Z,14.47
2019-05-02T14:13:32.784Z,17.00
2019-05-02T14:15:35.486Z,14.87
2019-05-02T14:17:38.031Z,15.23
2019-05-02T14:19:42.097Z,16.10
2019-05-02T14:21:43.284Z,15.33
2019-05-02T14:23:45.882Z,15.20
2019-05-02T14:25:48.533Z,14.57
2019-05-02T14:27:53.864Z,14.20
2019-05-02T14:29:53.708Z,14.43
2019-05-02T14:31:56.244Z,15.43
2019-05-02T14:34:04.516Z,14.90
2019-05-02T14:36:07.083Z,14.40
2019-05-02T14:38:12.857Z,15.00
2019-05-02T14:40:15.280Z,13.13
2019-05-02T14:42:22.286Z,17.23
2019-05-02T14:44:26.872Z,14.67
2019-05-02T14:46:28.758Z,18.13
2019-05-02T14:48:27.369Z,15.10
2019-05-02T14:50:31.897Z,16.70
2019-05-02T14:52:37.172Z,16.43
2019-05-02T14:54:38.003Z,16.30
2019-05-02T14:56:47.683Z,15.97
2019-05-02T14:58:47.019Z,17.23
2019-05-02T15:00:49.576Z,14.63
2019-05-02T15:02:52.122Z,14.90
2019-05-02T15:04:54.843Z,15.90
2019-05-02T15:06:57.456Z,12.63
2019-05-02T15:09:02.447Z,14.87
2019-05-02T15:11:03.554Z,14.33
2019-05-02T15:13:08.023Z,14.90
2019-05-02T15:15:12.325Z,15.80
2019-05-02T15:17:14.403Z,16.10
2019-05-02T15:19:16.943Z,12.87
2019-05-02T15:21:19.499Z,13.90
2019-05-02T15:23:22.740Z,13.13
2019-05-02T15:25:24.669Z,13.03
2019-05-02T15:27:39.382Z,13.23
2019-05-02T15:29:32.203Z,12.23
2019-05-02T15:31:35.390Z,11.80
2019-05-02T15:34:01.541Z,11.23
2019-05-02T15:36:07.529Z,10.07
2019-05-02T15:38:08.137Z,11.30
2019-05-02T15:42:13.414Z,11.13
2019-05-02T15:44:18.945Z,11.47
2019-05-02T15:46:23.860Z,13.00
2019-05-02T15:48:26.034Z,11.80
2019-05-02T15:50:25.465Z,13.13
2019-05-02T15:52:27.832Z,10.33
2019-05-02T15:54:28.850Z,10.70
2019-05-02T15:56:32.447Z,11.00
2019-05-02T15:58:34.014Z,10.33
2019-05-02T16:00:36.656Z,10.10
2019-05-02T16:02:39.204Z,10.50
2019-05-02T16:04:41.874Z,9.77
2019-05-02T16:06:45.376Z,10.20
2019-05-02T16:08:48.725Z,10.87
2019-05-02T16:10:51.316Z,7.60
2019-05-02T16:12:54.635Z,9.90
2019-05-02T16:14:57.246Z,8.67
2019-05-02T16:17:01.837Z,8.93
2019-05-02T16:19:03.450Z,8.83
2019-05-02T16:21:07.920Z,7.40
2019-05-02T16:23:08.663Z,8.90
2019-05-02T16:25:12.217Z,8.27
2019-05-02T16:27:16.451Z,7.40
2019-05-02T16:29:23.417Z,8.63
2019-05-02T16:31:22.100Z,10.73
2019-05-02T16:33:21.624Z,10.13
2019-05-02T16:35:24.173Z,7.47
2019-05-02T16:37:26.718Z,8.67
2019-05-02T16:39:32.398Z,7.73
2019-05-02T16:41:33.208Z,8.23
2019-05-02T16:43:36.533Z,6.30
2019-05-02T16:45:39.639Z,7.10
2019-05-02T16:47:42.351Z,9.30
2019-05-02T16:49:48.005Z,8.70
2019-05-02T16:51:48.996Z,9.40
2019-05-02T16:53:51.575Z,7.70
2019-05-02T16:55:58.472Z,8.70
2019-05-02T16:58:05.221Z,8.70
2019-05-02T17:00:05.699Z,8.57
2019-05-02T17:02:07.710Z,7.33
2019-05-02T17:04:06.834Z,8.67
2019-05-02T17:06:07.947Z,7.90
2019-05-02T17:08:18.921Z,7.97
2019-05-02T17:10:17.774Z,7.97
2019-05-02T17:12:19.443Z,8.27
2019-05-02T17:14:22.136Z,7.67
2019-05-02T17:16:26.111Z,8.00
2019-05-02T17:18:28.807Z,8.10
2019-05-02T17:20:31.932Z,8.30
2019-05-02T17:22:33.932Z,7.63
2019-05-02T17:24:36.633Z,8.13
2019-05-02T17:26:39.201Z,7.80
2019-05-02T17:28:45.278Z,6.63
2019-05-02T17:30:44.454Z,7.37
2019-05-02T17:32:46.992Z,7.63
2019-05-02T17:34:49.543Z,7.80
2019-05-02T17:36:53.942Z,6.87
2019-05-02T17:38:59.268Z,7.40
2019-05-02T17:41:06.408Z,9.77
2019-05-02T17:43:06.747Z,8.93
2019-05-02T17:45:05.604Z,8.37
2019-05-02T17:47:09.712Z,8.20
2019-05-02T17:49:12.349Z,10.20
2019-05-02T17:51:28.402Z,9.87
2019-05-02T17:53:33.838Z,8.87
2019-05-02T17:55:40.427Z,8.20
2019-05-02T17:57:38.163Z,8.30
2019-05-02T17:59:42.238Z,9.47
2019-05-02T18:01:44.378Z,8.87
2019-05-02T18:03:47.032Z,8.63
2019-05-02T18:05:49.596Z,9.30
2019-05-02T18:07:52.817Z,8.80
2019-05-02T18:09:56.486Z,8.97
2019-05-02T18:11:59.313Z,8.07
2019-05-02T18:14:05.630Z,8.03
2019-05-02T18:16:07.768Z,8.27
2019-05-02T18:18:10.007Z,8.07
2019-05-02T18:20:13.672Z,8.70
2019-05-02T18:22:23.399Z,8.87
2019-05-02T18:24:18.880Z,9.30
2019-05-02T18:26:22.227Z,7.97
2019-05-02T18:28:26.381Z,7.83
2019-05-02T18:30:28.296Z,8.43
2019-05-02T18:32:31.555Z,6.60
2019-05-02T18:34:34.206Z,7.20
2019-05-02T18:36:36.791Z,6.00
2019-05-02T18:38:41.597Z,6.80
2019-05-02T18:40:42.886Z,5.10
2019-05-02T18:42:45.449Z,7.73
2019-05-02T18:44:52.575Z,6.47
2019-05-02T18:46:51.885Z,7.33
2019-05-02T18:48:55.448Z,7.93
2019-05-02T18:50:58.784Z,7.93
2019-05-02T18:53:03.329Z,8.03
2019-05-02T18:55:05.844Z,7.73
2019-05-02T18:57:08.883Z,7.97
2019-05-02T18:59:14.271Z,8.47
2019-05-02T19:01:18.490Z,8.67
2019-05-02T19:03:22.610Z,9.40
2019-05-02T19:05:26.300Z,10.10
2019-05-02T19:07:33.235Z,9.27
2019-05-02T19:09:33.067Z,8.67
2019-05-02T19:11:35.271Z,9.50
2019-05-02T19:13:37.624Z,9.67
2019-05-02T19:15:39.592Z,9.63
2019-05-02T19:17:43.226Z,9.57
2019-05-02T19:19:44.979Z,8.13
2019-05-02T19:21:47.548Z,9.60
2019-05-02T19:23:51.764Z,11.87
2019-05-02T19:25:52.976Z,9.60
2019-05-02T19:27:59.069Z,10.17
2019-05-02T19:30:02.823Z,8.98
2019-05-02T19:32:03.767Z,9.57
2019-05-02T19:34:06.500Z,10.17
2019-05-02T19:36:11.311Z,10.63
2019-05-02T19:38:17.206Z,10.07
2019-05-02T19:40:20.021Z,9.33
2019-05-02T19:42:22.552Z,9.70
2019-05-02T19:44:28.794Z,9.03
2019-05-02T19:46:34.748Z,11.40
2019-05-02T19:48:33.022Z,10.07
2019-05-02T19:50:39.296Z,9.87
2019-05-02T19:52:39.317Z,10.40
2019-05-02T19:54:41.677Z,10.40
2019-05-02T19:56:47.307Z,11.40
2019-05-02T19:58:46.833Z,11.10
2019-05-02T20:00:48.627Z,12.03
2019-05-02T20:02:52.275Z,12.27
2019-05-02T20:04:54.077Z,11.83
2019-05-02T20:06:56.630Z,10.67
2019-05-02T20:09:04.727Z,11.17
2019-05-02T20:11:02.409Z,12.00
2019-05-02T20:13:05.128Z,11.60
2019-05-02T20:15:07.988Z,11.97
2019-05-02T20:17:10.557Z,10.47
2019-05-02T20:19:17.234Z,10.73
2019-05-02T20:21:27.232Z,11.97
2019-05-02T20:23:28.596Z,11.90
2019-05-02T20:25:29.872Z,12.07
2019-05-02T20:27:32.788Z,11.90
2019-05-02T20:29:34.163Z,11.37
2019-05-02T20:31:38.019Z,10.83
2019-05-02T20:33:43.076Z,11.00
2019-05-02T20:35:44.701Z,12.27
2019-05-02T20:37:47.378Z,11.10
2019-05-02T20:39:50.375Z,13.00
2019-05-02T20:41:53.886Z,12.33
2019-05-02T20:43:57.231Z,11.10
2019-05-02T20:46:02.394Z,10.53
2019-05-02T20:48:03.520Z,11.53
2019-05-02T20:50:06.401Z,11.53
2019-05-02T20:52:09.385Z,10.60
2019-05-02T20:54:12.763Z,12.20
2019-05-02T20:56:15.337Z,12.03
2019-05-02T20:58:17.894Z,11.00
2019-05-02T21:00:24.352Z,13.13
2019-05-02T21:02:27.031Z,11.87
2019-05-02T21:04:31.733Z,9.80
2019-05-02T21:06:40.926Z,11.77
2019-05-02T21:08:36.732Z,9.33
2019-05-02T21:10:41.707Z,11.50
2019-05-02T21:12:43.495Z,10.50
2019-05-02T21:14:46.180Z,12.03
2019-05-02T21:16:48.736Z,11.43
2019-05-02T21:18:51.327Z,12.07
2019-05-02T21:20:54.603Z,11.10
2019-05-02T21:22:57.176Z,11.07
2019-05-02T21:24:59.847Z,12.53
2019-05-02T21:27:02.412Z,12.57
2019-05-02T21:29:04.963Z,11.30
2019-05-02T21:31:07.674Z,10.87
2019-05-02T21:33:42.820Z,12.93
2019-05-02T21:35:44.155Z,10.60
2019-05-02T21:37:46.831Z,9.80
2019-05-02T21:39:49.381Z,9.83
2019-05-02T21:41:51.981Z,10.40
2019-05-02T21:43:55.377Z,11.07
2019-05-02T21:45:57.935Z,11.47
2019-05-02T21:48:02.165Z,10.30
2019-05-02T21:50:03.542Z,10.83
2019-05-02T21:52:08.779Z,10.40
2019-05-02T21:54:17.034Z,11.27
2019-05-02T21:56:21.771Z,12.30
2019-05-02T21:58:24.412Z,13.70
2019-05-02T22:00:32.838Z,11.27
2019-05-02T22:02:35.164Z,10.80
2019-05-02T22:04:38.507Z,12.20
2019-05-02T22:06:42.670Z,11.50
2019-05-02T22:08:43.659Z,10.30
2019-05-02T22:10:46.251Z,12.50
2019-05-02T22:12:48.793Z,11.27
2019-05-02T22:14:52.786Z,10.10
2019-05-02T22:16:53.947Z,11.00
2019-05-02T22:18:56.495Z,9.83
2019-05-02T22:20:59.335Z,10.77
2019-05-02T22:23:02.402Z,10.63
2019-05-02T22:25:05.827Z,10.57
2019-05-02T22:27:09.244Z,9.87
2019-05-02T22:29:12.373Z,9.27
2019-05-02T22:31:15.436Z,8.87
2019-05-02T22:33:18.023Z,8.70
2019-05-02T22:35:21.694Z,6.40
2019-05-02T22:37:23.271Z,5.63
2019-05-02T22:39:31.818Z,6.60
2019-05-02T22:41:34.269Z,5.97
2019-05-02T22:43:36.932Z,5.67
2019-05-02T22:45:39.498Z,4.80
2019-05-02T22:47:42.606Z,5.13
2019-05-02T22:49:44.616Z,5.93
2019-05-02T22:51:47.437Z,5.80
2019-05-02T22:53:49.982Z,6.20
2019-05-02T22:55:52.559Z,5.50
2019-05-02T22:57:55.460Z,6.67
2019-05-02T22:59:58.031Z,5.50
2019-05-02T23:02:02.187Z,5.82
2019-05-02T23:04:03.300Z,5.50
2019-05-02T23:06:05.870Z,5.87
2019-05-02T23:08:08.843Z,6.10
2019-05-02T23:10:12.618Z,4.50
2019-05-02T23:12:13.992Z,5.20
2019-05-02T23:14:16.650Z,5.57
2019-05-02T23:16:19.199Z,5.27
2019-05-02T23:18:22.815Z,5.23
2019-05-02T23:20:24.566Z,5.03
2019-05-02T23:22:27.347Z,5.13
2019-05-02T23:24:39.077Z,4.80
2019-05-02T23:26:55.992Z,4.97
2019-05-02T23:29:02.220Z,4.27
2019-05-02T23:31:03.536Z,4.70
2019-05-02T23:33:06.223Z,4.77
2019-05-02T23:35:09.688Z,5.17
2019-05-02T23:37:12.994Z,4.00
2019-05-02T23:39:15.571Z,4.27
2019-05-02T23:41:18.840Z,4.50
2019-05-02T23:43:22.632Z,4.40
2019-05-02T23:45:26.084Z,5.20
2019-05-02T23:47:28.640Z,4.70
2019-05-02T23:49:32.448Z,4.00
2019-05-02T23:51:33.917Z,3.63
2019-05-02T23:53:36.475Z,4.13
2019-05-02T23:55:39.036Z,5.50
2019-05-02T23:57:42.154Z,4.83
2019-05-02T23:59:44.199Z,4.90
